sensor_id;sensor_type;location;lat;lon;timestamp;temperature;humidity
22185;DHT22;11258;52.516;13.318;2023-08-21T00:00:49;23.70;99.90
22185;DHT22;11258;52.516;13.318;2023-08-21T00:03:15;23.60;99.90
22185;DHT22;11258;52.516;13.318;2023-08-21T00:05:40;23.60;99.90
22185;DHT22;11258;52.516;13.318;2023-08-21T00:08:06;23.50;99.90
22185;DHT22;11258;52.516;13.318;2023-08-21T00:10:31;23.60;99.90
22185;DHT22;11258;52.516;13.318;2023-08-21T00:12:58;23.60;99.90
22185;DHT22;11258;52.516;13.318;2023-08-21T00:15:24;23.60;99.90
22185;DHT22;11258;52.516;13.318;2023-08-21T00:17:49;23.60;99.90
22185;DHT22;11258;52.516;13.318;2023-08-21T00:20:15;23.50;99.90
22185;DHT22;11258;52.516;13.318;2023-08-21T00:22:40;23.50;99.90
22185;DHT22;11258;52.516;13.318;2023-08-21T00:25:06;23.50;99.90
22185;DHT22;11258;52.516;13.318;2023-08-21T00:27:32;23.40;99.90
22185;DHT22;11258;52.516;13.318;2023-08-21T00:30:00;23.30;99.90
22185;DHT22;11258;52.516;13.318;2023-08-21T00:32:25;23.30;99.90
22185;DHT22;11258;52.516;13.318;2023-08-21T00:34:51;23.30;99.90
22185;DHT22;11258;52.516;13.318;2023-08-21T00:37:17;23.30;99.90
22185;DHT22;11258;52.516;13.318;2023-08-21T00:39:42;23.30;99.90
22185;DHT22;11258;52.516;13.318;2023-08-21T00:42:08;23.30;99.90
22185;DHT22;11258;52.516;13.318;2023-08-21T00:44:33;23.30;99.90
22185;DHT22;11258;52.516;13.318;2023-08-21T00:46:59;23.20;99.90
22185;DHT22;11258;52.516;13.318;2023-08-21T00:49:25;23.30;99.90
22185;DHT22;11258;52.516;13.318;2023-08-21T00:51:52;23.20;99.90
22185;DHT22;11258;52.516;13.318;2023-08-21T00:54:19;23.20;99.90
22185;DHT22;11258;52.516;13.318;2023-08-21T00:56:45;23.20;99.90
22185;DHT22;11258;52.516;13.318;2023-08-21T00:59:11;23.30;99.90
22185;DHT22;11258;52.516;13.318;2023-08-21T01:01:37;23.20;99.90
22185;DHT22;11258;52.516;13.318;2023-08-21T01:04:03;23.20;99.90
22185;DHT22;11258;52.516;13.318;2023-08-21T01:06:29;23.20;99.90
22185;DHT22;11258;52.516;13.318;2023-08-21T01:09:02;23.20;99.90
22185;DHT22;11258;52.516;13.318;2023-08-21T01:11:50;23.20;99.90
22185;DHT22;11258;52.516;13.318;2023-08-21T01:16:47;22.90;99.90
22185;DHT22;11258;52.516;13.318;2023-08-21T01:22:14;22.80;99.90
22185;DHT22;11258;52.516;13.318;2023-08-21T01:24:40;22.70;99.90
22185;DHT22;11258;52.516;13.318;2023-08-21T01:27:06;22.80;99.90
22185;DHT22;11258;52.516;13.318;2023-08-21T01:29:32;22.90;99.90
22185;DHT22;11258;52.516;13.318;2023-08-21T01:32:12;22.90;99.90
22185;DHT22;11258;52.516;13.318;2023-08-21T01:34:39;22.80;99.90
22185;DHT22;11258;52.516;13.318;2023-08-21T01:37:06;22.90;99.90
22185;DHT22;11258;52.516;13.318;2023-08-21T01:39:32;22.70;99.90
22185;DHT22;11258;52.516;13.318;2023-08-21T01:41:58;22.90;99.90
22185;DHT22;11258;52.516;13.318;2023-08-21T01:44:24;22.80;99.90
22185;DHT22;11258;52.516;13.318;2023-08-21T01:46:50;22.90;99.90
22185;DHT22;11258;52.516;13.318;2023-08-21T01:49:15;23.00;99.90
22185;DHT22;11258;52.516;13.318;2023-08-21T01:51:41;22.80;99.90
22185;DHT22;11258;52.516;13.318;2023-08-21T01:54:06;22.70;99.90
22185;DHT22;11258;52.516;13.318;2023-08-21T01:56:32;22.70;99.90
22185;DHT22;11258;52.516;13.318;2023-08-21T01:58:58;22.70;99.90
22185;DHT22;11258;52.516;13.318;2023-08-21T02:01:23;22.70;99.90
22185;DHT22;11258;52.516;13.318;2023-08-21T02:03:49;22.70;99.90
22185;DHT22;11258;52.516;13.318;2023-08-21T02:06:15;22.80;99.90
22185;DHT22;11258;52.516;13.318;2023-08-21T02:08:40;22.80;99.90
22185;DHT22;11258;52.516;13.318;2023-08-21T02:11:06;22.80;99.90
22185;DHT22;11258;52.516;13.318;2023-08-21T02:13:31;22.80;99.90
22185;DHT22;11258;52.516;13.318;2023-08-21T02:15:58;22.90;99.90
22185;DHT22;11258;52.516;13.318;2023-08-21T02:18:24;22.90;99.90
22185;DHT22;11258;52.516;13.318;2023-08-21T02:20:49;22.90;99.90
22185;DHT22;11258;52.516;13.318;2023-08-21T02:23:16;22.90;99.90
22185;DHT22;11258;52.516;13.318;2023-08-21T02:25:42;22.80;99.90
22185;DHT22;11258;52.516;13.318;2023-08-21T02:28:07;22.80;99.90
22185;DHT22;11258;52.516;13.318;2023-08-21T02:30:33;22.80;99.90
22185;DHT22;11258;52.516;13.318;2023-08-21T02:32:59;22.70;99.90
22185;DHT22;11258;52.516;13.318;2023-08-21T02:35:24;22.70;99.90
22185;DHT22;11258;52.516;13.318;2023-08-21T02:37:50;22.80;99.90
22185;DHT22;11258;52.516;13.318;2023-08-21T02:40:16;22.70;99.90
22185;DHT22;11258;52.516;13.318;2023-08-21T02:42:41;22.70;99.90
22185;DHT22;11258;52.516;13.318;2023-08-21T02:45:07;22.80;99.90
22185;DHT22;11258;52.516;13.318;2023-08-21T02:47:42;22.80;99.90
22185;DHT22;11258;52.516;13.318;2023-08-21T02:50:09;22.80;99.90
22185;DHT22;11258;52.516;13.318;2023-08-21T02:52:36;22.80;99.90
22185;DHT22;11258;52.516;13.318;2023-08-21T02:55:02;22.80;99.90
22185;DHT22;11258;52.516;13.318;2023-08-21T02:57:28;22.80;99.90
22185;DHT22;11258;52.516;13.318;2023-08-21T02:59:54;22.80;99.90
22185;DHT22;11258;52.516;13.318;2023-08-21T03:02:20;22.80;99.90
22185;DHT22;11258;52.516;13.318;2023-08-21T03:04:46;22.70;99.90
22185;DHT22;11258;52.516;13.318;2023-08-21T03:07:12;22.80;99.90
22185;DHT22;11258;52.516;13.318;2023-08-21T03:09:38;22.80;99.90
22185;DHT22;11258;52.516;13.318;2023-08-21T03:12:04;22.80;99.90
22185;DHT22;11258;52.516;13.318;2023-08-21T03:14:30;22.90;99.90
22185;DHT22;11258;52.516;13.318;2023-08-21T03:16:55;22.80;99.90
22185;DHT22;11258;52.516;13.318;2023-08-21T03:19:21;22.70;99.90
22185;DHT22;11258;52.516;13.318;2023-08-21T03:21:47;22.70;99.90
22185;DHT22;11258;52.516;13.318;2023-08-21T03:24:12;22.80;99.90
22185;DHT22;11258;52.516;13.318;2023-08-21T03:26:38;22.80;99.90
22185;DHT22;11258;52.516;13.318;2023-08-21T03:29:03;22.80;99.90
22185;DHT22;11258;52.516;13.318;2023-08-21T03:31:29;22.80;99.90
22185;DHT22;11258;52.516;13.318;2023-08-21T03:33:56;22.90;99.90
22185;DHT22;11258;52.516;13.318;2023-08-21T03:36:22;22.90;99.90
22185;DHT22;11258;52.516;13.318;2023-08-21T03:38:56;22.90;99.90
22185;DHT22;11258;52.516;13.318;2023-08-21T03:41:22;22.70;99.90
22185;DHT22;11258;52.516;13.318;2023-08-21T03:43:48;22.70;99.90
22185;DHT22;11258;52.516;13.318;2023-08-21T03:46:13;22.60;99.90
22185;DHT22;11258;52.516;13.318;2023-08-21T03:48:39;22.60;99.90
22185;DHT22;11258;52.516;13.318;2023-08-21T03:51:04;22.50;99.90
22185;DHT22;11258;52.516;13.318;2023-08-21T03:53:30;22.50;99.90
22185;DHT22;11258;52.516;13.318;2023-08-21T03:55:55;22.60;99.90
22185;DHT22;11258;52.516;13.318;2023-08-21T03:58:21;22.50;99.90
22185;DHT22;11258;52.516;13.318;2023-08-21T04:00:46;22.60;99.90
22185;DHT22;11258;52.516;13.318;2023-08-21T04:03:12;22.60;99.90
22185;DHT22;11258;52.516;13.318;2023-08-21T04:05:38;22.70;99.90
22185;DHT22;11258;52.516;13.318;2023-08-21T04:08:04;22.70;99.90
22185;DHT22;11258;52.516;13.318;2023-08-21T04:10:29;22.50;99.90
22185;DHT22;11258;52.516;13.318;2023-08-21T04:12:55;22.50;99.90
22185;DHT22;11258;52.516;13.318;2023-08-21T04:15:20;22.60;99.90
22185;DHT22;11258;52.516;13.318;2023-08-21T04:17:46;22.60;99.90
22185;DHT22;11258;52.516;13.318;2023-08-21T04:20:11;22.80;99.90
22185;DHT22;11258;52.516;13.318;2023-08-21T04:22:37;22.90;99.90
22185;DHT22;11258;52.516;13.318;2023-08-21T04:25:03;23.00;99.90
22185;DHT22;11258;52.516;13.318;2023-08-21T04:27:28;23.10;99.90
22185;DHT22;11258;52.516;13.318;2023-08-21T04:29:54;23.10;99.90
22185;DHT22;11258;52.516;13.318;2023-08-21T04:32:19;23.20;99.90
22185;DHT22;11258;52.516;13.318;2023-08-21T04:34:45;23.20;99.90
22185;DHT22;11258;52.516;13.318;2023-08-21T04:37:11;23.30;99.90
22185;DHT22;11258;52.516;13.318;2023-08-21T04:39:36;23.40;99.90
22185;DHT22;11258;52.516;13.318;2023-08-21T04:42:02;23.40;99.90
22185;DHT22;11258;52.516;13.318;2023-08-21T04:44:28;23.50;99.90
22185;DHT22;11258;52.516;13.318;2023-08-21T04:46:55;23.40;99.90
22185;DHT22;11258;52.516;13.318;2023-08-21T04:49:20;23.40;99.90
22185;DHT22;11258;52.516;13.318;2023-08-21T04:51:46;23.50;99.90
22185;DHT22;11258;52.516;13.318;2023-08-21T04:54:12;23.50;99.90
22185;DHT22;11258;52.516;13.318;2023-08-21T04:56:37;23.60;99.90
22185;DHT22;11258;52.516;13.318;2023-08-21T04:59:03;23.80;99.90
22185;DHT22;11258;52.516;13.318;2023-08-21T05:01:29;23.70;99.90
22185;DHT22;11258;52.516;13.318;2023-08-21T05:03:55;24.40;99.90
22185;DHT22;11258;52.516;13.318;2023-08-21T05:06:20;25.00;99.90
22185;DHT22;11258;52.516;13.318;2023-08-21T05:08:46;25.70;99.90
22185;DHT22;11258;52.516;13.318;2023-08-21T05:11:11;25.50;99.90
22185;DHT22;11258;52.516;13.318;2023-08-21T05:13:37;25.20;99.90
22185;DHT22;11258;52.516;13.318;2023-08-21T05:16:03;25.10;99.90
22185;DHT22;11258;52.516;13.318;2023-08-21T05:18:28;25.00;99.90
22185;DHT22;11258;52.516;13.318;2023-08-21T05:20:55;24.80;99.90
22185;DHT22;11258;52.516;13.318;2023-08-21T05:23:21;24.70;99.90
22185;DHT22;11258;52.516;13.318;2023-08-21T05:25:48;25.60;99.90
22185;DHT22;11258;52.516;13.318;2023-08-21T05:28:14;26.10;99.90
22185;DHT22;11258;52.516;13.318;2023-08-21T05:30:40;26.90;99.90
22185;DHT22;11258;52.516;13.318;2023-08-21T05:33:06;27.50;99.90
22185;DHT22;11258;52.516;13.318;2023-08-21T05:35:35;26.90;99.90
22185;DHT22;11258;52.516;13.318;2023-08-21T05:38:03;27.90;99.90
22185;DHT22;11258;52.516;13.318;2023-08-21T05:40:29;28.30;99.90
22185;DHT22;11258;52.516;13.318;2023-08-21T05:42:55;29.50;99.90
22185;DHT22;11258;52.516;13.318;2023-08-21T05:45:20;30.40;99.90
22185;DHT22;11258;52.516;13.318;2023-08-21T05:47:46;31.10;99.90
22185;DHT22;11258;52.516;13.318;2023-08-21T05:50:12;30.70;99.90
22185;DHT22;11258;52.516;13.318;2023-08-21T05:52:37;29.30;99.90
22185;DHT22;11258;52.516;13.318;2023-08-21T05:55:04;29.40;99.90
22185;DHT22;11258;52.516;13.318;2023-08-21T05:57:30;27.90;99.90
22185;DHT22;11258;52.516;13.318;2023-08-21T05:59:55;27.00;99.90
22185;DHT22;11258;52.516;13.318;2023-08-21T06:02:21;26.90;99.90
22185;DHT22;11258;52.516;13.318;2023-08-21T06:04:46;27.00;99.90
22185;DHT22;11258;52.516;13.318;2023-08-21T06:07:12;26.90;99.90
22185;DHT22;11258;52.516;13.318;2023-08-21T06:09:38;28.00;99.90
22185;DHT22;11258;52.516;13.318;2023-08-21T06:12:04;28.80;99.90
22185;DHT22;11258;52.516;13.318;2023-08-21T06:14:29;28.60;99.90
22185;DHT22;11258;52.516;13.318;2023-08-21T06:17:02;28.30;99.90
22185;DHT22;11258;52.516;13.318;2023-08-21T06:19:28;28.10;99.90
22185;DHT22;11258;52.516;13.318;2023-08-21T06:21:55;28.30;99.90
22185;DHT22;11258;52.516;13.318;2023-08-21T06:24:21;28.30;99.90
22185;DHT22;11258;52.516;13.318;2023-08-21T06:26:46;28.40;99.90
22185;DHT22;11258;52.516;13.318;2023-08-21T06:29:12;28.20;99.90
22185;DHT22;11258;52.516;13.318;2023-08-21T06:31:37;28.80;99.90
22185;DHT22;11258;52.516;13.318;2023-08-21T06:34:03;29.00;99.90
22185;DHT22;11258;52.516;13.318;2023-08-21T06:36:29;29.00;99.90
22185;DHT22;11258;52.516;13.318;2023-08-21T06:38:55;30.10;99.90
22185;DHT22;11258;52.516;13.318;2023-08-21T06:41:21;31.90;99.90
22185;DHT22;11258;52.516;13.318;2023-08-21T06:43:46;33.00;99.90
22185;DHT22;11258;52.516;13.318;2023-08-21T06:46:12;34.50;99.90
22185;DHT22;11258;52.516;13.318;2023-08-21T06:48:39;35.90;99.90
22185;DHT22;11258;52.516;13.318;2023-08-21T06:51:07;36.90;99.90
22185;DHT22;11258;52.516;13.318;2023-08-21T06:53:34;37.80;99.90
22185;DHT22;11258;52.516;13.318;2023-08-21T06:55:59;37.40;99.90
22185;DHT22;11258;52.516;13.318;2023-08-21T06:58:25;36.10;99.90
22185;DHT22;11258;52.516;13.318;2023-08-21T07:00:53;34.80;99.90
22185;DHT22;11258;52.516;13.318;2023-08-21T07:03:18;34.40;99.90
22185;DHT22;11258;52.516;13.318;2023-08-21T07:05:46;34.60;99.90
22185;DHT22;11258;52.516;13.318;2023-08-21T07:08:18;35.20;99.90
22185;DHT22;11258;52.516;13.318;2023-08-21T07:10:44;36.70;99.90
22185;DHT22;11258;52.516;13.318;2023-08-21T07:13:09;37.60;99.90
22185;DHT22;11258;52.516;13.318;2023-08-21T07:15:35;38.60;99.90
22185;DHT22;11258;52.516;13.318;2023-08-21T07:18:00;39.00;97.80
22185;DHT22;11258;52.516;13.318;2023-08-21T07:20:26;38.40;97.60
22185;DHT22;11258;52.516;13.318;2023-08-21T07:22:52;38.10;97.10
22185;DHT22;11258;52.516;13.318;2023-08-21T07:25:17;38.00;96.80
22185;DHT22;11258;52.516;13.318;2023-08-21T07:27:43;38.00;96.70
22185;DHT22;11258;52.516;13.318;2023-08-21T07:30:09;38.20;97.10
22185;DHT22;11258;52.516;13.318;2023-08-21T07:32:35;38.70;95.80
22185;DHT22;11258;52.516;13.318;2023-08-21T07:35:00;39.20;94.90
22185;DHT22;11258;52.516;13.318;2023-08-21T07:37:26;39.70;94.00
22185;DHT22;11258;52.516;13.318;2023-08-21T07:39:52;39.90;92.40
22185;DHT22;11258;52.516;13.318;2023-08-21T07:42:18;40.00;91.70
22185;DHT22;11258;52.516;13.318;2023-08-21T07:44:44;40.60;90.90
22185;DHT22;11258;52.516;13.318;2023-08-21T07:47:11;40.70;89.60
22185;DHT22;11258;52.516;13.318;2023-08-21T07:49:37;40.30;89.30
22185;DHT22;11258;52.516;13.318;2023-08-21T07:52:05;40.00;89.50
22185;DHT22;11258;52.516;13.318;2023-08-21T07:54:31;40.70;87.30
22185;DHT22;11258;52.516;13.318;2023-08-21T07:56:57;40.30;86.00
22185;DHT22;11258;52.516;13.318;2023-08-21T07:59:22;39.40;86.20
22185;DHT22;11258;52.516;13.318;2023-08-21T08:01:48;38.50;86.40
22185;DHT22;11258;52.516;13.318;2023-08-21T08:04:14;37.70;87.80
22185;DHT22;11258;52.516;13.318;2023-08-21T08:06:39;36.30;88.90
22185;DHT22;11258;52.516;13.318;2023-08-21T08:09:05;35.80;90.10
22185;DHT22;11258;52.516;13.318;2023-08-21T08:11:30;35.30;91.10
22185;DHT22;11258;52.516;13.318;2023-08-21T08:13:56;35.40;91.50
22185;DHT22;11258;52.516;13.318;2023-08-21T08:16:22;34.90;91.90
22185;DHT22;11258;52.516;13.318;2023-08-21T08:18:47;35.10;91.90
22185;DHT22;11258;52.516;13.318;2023-08-21T08:21:14;34.60;92.20
22185;DHT22;11258;52.516;13.318;2023-08-21T08:23:39;34.20;93.10
22185;DHT22;11258;52.516;13.318;2023-08-21T08:26:05;33.70;93.80
22185;DHT22;11258;52.516;13.318;2023-08-21T08:28:31;33.40;94.40
22185;DHT22;11258;52.516;13.318;2023-08-21T08:30:56;33.20;95.10
22185;DHT22;11258;52.516;13.318;2023-08-21T08:33:23;34.00;94.80
22185;DHT22;11258;52.516;13.318;2023-08-21T08:35:48;35.40;93.60
22185;DHT22;11258;52.516;13.318;2023-08-21T08:38:14;36.10;92.30
22185;DHT22;11258;52.516;13.318;2023-08-21T08:40:45;36.30;91.30
22185;DHT22;11258;52.516;13.318;2023-08-21T08:43:12;37.00;91.20
22185;DHT22;11258;52.516;13.318;2023-08-21T08:45:40;37.10;89.80
22185;DHT22;11258;52.516;13.318;2023-08-21T08:48:07;36.50;86.20
22185;DHT22;11258;52.516;13.318;2023-08-21T08:50:33;36.90;86.00
22185;DHT22;11258;52.516;13.318;2023-08-21T08:53:00;37.20;84.20
22185;DHT22;11258;52.516;13.318;2023-08-21T08:55:26;37.80;77.40
22185;DHT22;11258;52.516;13.318;2023-08-21T08:57:52;37.80;76.50
22185;DHT22;11258;52.516;13.318;2023-08-21T09:00:19;38.50;75.00
22185;DHT22;11258;52.516;13.318;2023-08-21T09:02:45;37.60;75.20
22185;DHT22;11258;52.516;13.318;2023-08-21T09:05:11;36.50;76.50
22185;DHT22;11258;52.516;13.318;2023-08-21T09:07:38;35.90;77.40
22185;DHT22;11258;52.516;13.318;2023-08-21T09:10:04;35.40;78.40
22185;DHT22;11258;52.516;13.318;2023-08-21T09:12:32;35.30;79.60
22185;DHT22;11258;52.516;13.318;2023-08-21T09:14:58;35.10;79.80
22185;DHT22;11258;52.516;13.318;2023-08-21T09:17:26;34.50;79.80
22185;DHT22;11258;52.516;13.318;2023-08-21T09:19:52;34.60;81.30
22185;DHT22;11258;52.516;13.318;2023-08-21T09:22:19;35.10;80.90
22185;DHT22;11258;52.516;13.318;2023-08-21T09:27:30;36.20;79.40
22185;DHT22;11258;52.516;13.318;2023-08-21T09:29:57;36.00;78.90
22185;DHT22;11258;52.516;13.318;2023-08-21T09:32:24;35.80;79.00
22185;DHT22;11258;52.516;13.318;2023-08-21T09:34:49;35.90;78.80
22185;DHT22;11258;52.516;13.318;2023-08-21T09:37:16;35.40;79.70
22185;DHT22;11258;52.516;13.318;2023-08-21T09:39:43;35.80;79.70
22185;DHT22;11258;52.516;13.318;2023-08-21T09:42:09;35.20;79.20
22185;DHT22;11258;52.516;13.318;2023-08-21T09:44:39;35.50;80.10
22185;DHT22;11258;52.516;13.318;2023-08-21T09:47:10;35.40;81.10
22185;DHT22;11258;52.516;13.318;2023-08-21T09:49:37;35.10;80.90
22185;DHT22;11258;52.516;13.318;2023-08-21T09:52:06;35.10;80.90
22185;DHT22;11258;52.516;13.318;2023-08-21T09:54:33;34.80;81.00
22185;DHT22;11258;52.516;13.318;2023-08-21T09:57:03;34.20;82.50
22185;DHT22;11258;52.516;13.318;2023-08-21T09:59:30;33.90;84.50
22185;DHT22;11258;52.516;13.318;2023-08-21T10:01:58;34.10;85.00
22185;DHT22;11258;52.516;13.318;2023-08-21T10:04:25;34.20;85.80
22185;DHT22;11258;52.516;13.318;2023-08-21T10:06:52;33.80;85.90
22185;DHT22;11258;52.516;13.318;2023-08-21T10:09:20;34.00;85.50
22185;DHT22;11258;52.516;13.318;2023-08-21T10:11:48;34.10;84.80
22185;DHT22;11258;52.516;13.318;2023-08-21T10:14:14;34.50;85.80
22185;DHT22;11258;52.516;13.318;2023-08-21T10:16:39;34.20;85.30
22185;DHT22;11258;52.516;13.318;2023-08-21T10:19:06;34.40;85.10
22185;DHT22;11258;52.516;13.318;2023-08-21T10:21:35;34.00;83.20
22185;DHT22;11258;52.516;13.318;2023-08-21T10:24:02;34.20;83.10
22185;DHT22;11258;52.516;13.318;2023-08-21T10:26:28;34.30;82.90
22185;DHT22;11258;52.516;13.318;2023-08-21T10:28:59;34.30;83.40
22185;DHT22;11258;52.516;13.318;2023-08-21T10:31:27;34.10;83.40
22185;DHT22;11258;52.516;13.318;2023-08-21T10:33:56;33.70;82.50
22185;DHT22;11258;52.516;13.318;2023-08-21T10:44:54;32.60;85.00
22185;DHT22;11258;52.516;13.318;2023-08-21T10:50:02;33.10;85.30
22185;DHT22;11258;52.516;13.318;2023-08-21T10:52:42;33.10;85.20
22185;DHT22;11258;52.516;13.318;2023-08-21T10:55:11;32.80;84.80
22185;DHT22;11258;52.516;13.318;2023-08-21T10:57:38;32.70;84.90
22185;DHT22;11258;52.516;13.318;2023-08-21T11:02:32;32.40;87.60
22185;DHT22;11258;52.516;13.318;2023-08-21T11:04:58;32.40;85.80
22185;DHT22;11258;52.516;13.318;2023-08-21T11:07:25;32.50;87.10
22185;DHT22;11258;52.516;13.318;2023-08-21T11:09:51;32.60;86.80
22185;DHT22;11258;52.516;13.318;2023-08-21T11:12:22;32.40;87.00
22185;DHT22;11258;52.516;13.318;2023-08-21T11:14:48;32.30;88.00
22185;DHT22;11258;52.516;13.318;2023-08-21T11:17:14;32.10;89.30
22185;DHT22;11258;52.516;13.318;2023-08-21T11:19:41;31.90;88.80
22185;DHT22;11258;52.516;13.318;2023-08-21T11:22:06;31.80;88.60
22185;DHT22;11258;52.516;13.318;2023-08-21T11:24:45;31.80;88.90
22185;DHT22;11258;52.516;13.318;2023-08-21T11:27:13;31.80;87.60
22185;DHT22;11258;52.516;13.318;2023-08-21T11:29:46;32.00;86.60
22185;DHT22;11258;52.516;13.318;2023-08-21T11:32:17;32.10;86.50
22185;DHT22;11258;52.516;13.318;2023-08-21T11:34:49;32.20;86.20
22185;DHT22;11258;52.516;13.318;2023-08-21T11:37:17;32.20;86.80
22185;DHT22;11258;52.516;13.318;2023-08-21T11:42:11;32.40;86.60
22185;DHT22;11258;52.516;13.318;2023-08-21T11:44:45;32.30;87.00
22185;DHT22;11258;52.516;13.318;2023-08-21T11:47:12;32.30;88.60
22185;DHT22;11258;52.516;13.318;2023-08-21T11:49:40;32.40;87.00
22185;DHT22;11258;52.516;13.318;2023-08-21T11:52:13;32.40;86.70
22185;DHT22;11258;52.516;13.318;2023-08-21T11:54:40;32.30;86.70
22185;DHT22;11258;52.516;13.318;2023-08-21T11:57:12;32.20;86.60
22185;DHT22;11258;52.516;13.318;2023-08-21T11:59:38;32.00;85.90
22185;DHT22;11258;52.516;13.318;2023-08-21T12:02:30;32.00;85.70
22185;DHT22;11258;52.516;13.318;2023-08-21T12:05:05;32.00;86.50
22185;DHT22;11258;52.516;13.318;2023-08-21T12:07:32;31.90;87.20
22185;DHT22;11258;52.516;13.318;2023-08-21T12:09:58;31.80;86.70
22185;DHT22;11258;52.516;13.318;2023-08-21T12:12:24;31.60;87.30
22185;DHT22;11258;52.516;13.318;2023-08-21T12:14:49;31.40;89.10
22185;DHT22;11258;52.516;13.318;2023-08-21T12:17:15;31.60;88.90
22185;DHT22;11258;52.516;13.318;2023-08-21T12:19:41;31.50;89.60
22185;DHT22;11258;52.516;13.318;2023-08-21T12:22:07;31.70;89.50
22185;DHT22;11258;52.516;13.318;2023-08-21T12:24:33;31.60;89.70
22185;DHT22;11258;52.516;13.318;2023-08-21T12:26:59;31.40;90.20
22185;DHT22;11258;52.516;13.318;2023-08-21T12:29:25;31.50;90.00
22185;DHT22;11258;52.516;13.318;2023-08-21T12:31:50;31.30;89.80
22185;DHT22;11258;52.516;13.318;2023-08-21T12:34:16;31.30;89.80
22185;DHT22;11258;52.516;13.318;2023-08-21T12:36:42;30.90;89.70
22185;DHT22;11258;52.516;13.318;2023-08-21T12:39:07;30.80;90.30
22185;DHT22;11258;52.516;13.318;2023-08-21T12:41:34;30.60;90.20
22185;DHT22;11258;52.516;13.318;2023-08-21T12:44:00;30.70;90.40
22185;DHT22;11258;52.516;13.318;2023-08-21T12:46:26;30.80;90.80
22185;DHT22;11258;52.516;13.318;2023-08-21T12:48:53;30.90;90.80
22185;DHT22;11258;52.516;13.318;2023-08-21T12:51:19;31.10;90.60
22185;DHT22;11258;52.516;13.318;2023-08-21T12:53:44;31.20;89.00
22185;DHT22;11258;52.516;13.318;2023-08-21T12:56:10;31.30;89.00
22185;DHT22;11258;52.516;13.318;2023-08-21T12:58:36;30.90;87.70
22185;DHT22;11258;52.516;13.318;2023-08-21T13:01:01;30.90;88.60
22185;DHT22;11258;52.516;13.318;2023-08-21T13:03:29;30.50;89.20
22185;DHT22;11258;52.516;13.318;2023-08-21T13:05:54;30.50;89.60
22185;DHT22;11258;52.516;13.318;2023-08-21T13:08:21;30.40;89.80
22185;DHT22;11258;52.516;13.318;2023-08-21T13:10:46;30.50;90.00
22185;DHT22;11258;52.516;13.318;2023-08-21T13:13:12;30.50;87.20
22185;DHT22;11258;52.516;13.318;2023-08-21T13:15:38;30.50;87.60
22185;DHT22;11258;52.516;13.318;2023-08-21T13:18:04;30.40;87.20
22185;DHT22;11258;52.516;13.318;2023-08-21T13:20:30;30.30;88.30
22185;DHT22;11258;52.516;13.318;2023-08-21T13:22:56;30.20;87.00
22185;DHT22;11258;52.516;13.318;2023-08-21T13:25:24;30.30;86.50
22185;DHT22;11258;52.516;13.318;2023-08-21T13:27:51;30.20;86.10
22185;DHT22;11258;52.516;13.318;2023-08-21T13:30:17;30.40;86.90
22185;DHT22;11258;52.516;13.318;2023-08-21T13:32:43;30.40;86.20
22185;DHT22;11258;52.516;13.318;2023-08-21T13:35:09;30.20;86.60
22185;DHT22;11258;52.516;13.318;2023-08-21T13:37:38;30.20;86.80
22185;DHT22;11258;52.516;13.318;2023-08-21T13:40:04;30.30;86.60
22185;DHT22;11258;52.516;13.318;2023-08-21T13:42:40;30.40;85.70
22185;DHT22;11258;52.516;13.318;2023-08-21T13:45:11;30.40;85.50
22185;DHT22;11258;52.516;13.318;2023-08-21T13:47:38;30.30;84.90
22185;DHT22;11258;52.516;13.318;2023-08-21T13:50:05;30.40;85.40
22185;DHT22;11258;52.516;13.318;2023-08-21T13:52:31;30.40;84.30
22185;DHT22;11258;52.516;13.318;2023-08-21T13:54:58;30.30;84.00
22185;DHT22;11258;52.516;13.318;2023-08-21T13:57:24;30.10;82.90
22185;DHT22;11258;52.516;13.318;2023-08-21T13:59:50;29.80;84.40
22185;DHT22;11258;52.516;13.318;2023-08-21T14:02:15;29.60;84.30
22185;DHT22;11258;52.516;13.318;2023-08-21T14:04:41;29.40;84.80
22185;DHT22;11258;52.516;13.318;2023-08-21T14:07:07;29.40;86.20
22185;DHT22;11258;52.516;13.318;2023-08-21T14:09:32;29.40;87.50
22185;DHT22;11258;52.516;13.318;2023-08-21T14:11:58;29.20;86.20
22185;DHT22;11258;52.516;13.318;2023-08-21T14:14:23;29.20;87.10
22185;DHT22;11258;52.516;13.318;2023-08-21T14:16:49;29.10;86.60
22185;DHT22;11258;52.516;13.318;2023-08-21T14:19:14;29.20;86.80
22185;DHT22;11258;52.516;13.318;2023-08-21T14:21:40;29.30;85.00
22185;DHT22;11258;52.516;13.318;2023-08-21T14:24:06;29.40;84.40
22185;DHT22;11258;52.516;13.318;2023-08-21T14:26:33;29.50;84.60
22185;DHT22;11258;52.516;13.318;2023-08-21T14:28:58;29.70;84.90
22185;DHT22;11258;52.516;13.318;2023-08-21T14:31:24;29.90;84.10
22185;DHT22;11258;52.516;13.318;2023-08-21T14:33:50;30.00;83.60
22185;DHT22;11258;52.516;13.318;2023-08-21T14:36:15;29.80;82.90
22185;DHT22;11258;52.516;13.318;2023-08-21T14:38:41;29.80;84.10
22185;DHT22;11258;52.516;13.318;2023-08-21T14:41:07;29.90;84.70
22185;DHT22;11258;52.516;13.318;2023-08-21T14:43:32;29.90;85.50
22185;DHT22;11258;52.516;13.318;2023-08-21T14:45:58;29.80;85.60
22185;DHT22;11258;52.516;13.318;2023-08-21T14:48:24;29.80;85.30
22185;DHT22;11258;52.516;13.318;2023-08-21T14:50:49;29.60;85.40
22185;DHT22;11258;52.516;13.318;2023-08-21T14:53:15;29.60;86.10
22185;DHT22;11258;52.516;13.318;2023-08-21T14:55:41;29.50;86.70
22185;DHT22;11258;52.516;13.318;2023-08-21T14:58:07;29.50;87.00
22185;DHT22;11258;52.516;13.318;2023-08-21T15:00:34;29.40;87.30
22185;DHT22;11258;52.516;13.318;2023-08-21T15:03:00;29.40;88.00
22185;DHT22;11258;52.516;13.318;2023-08-21T15:05:29;29.40;88.70
22185;DHT22;11258;52.516;13.318;2023-08-21T15:07:55;29.30;89.00
22185;DHT22;11258;52.516;13.318;2023-08-21T15:10:21;29.30;89.10
22185;DHT22;11258;52.516;13.318;2023-08-21T15:12:47;29.30;89.40
22185;DHT22;11258;52.516;13.318;2023-08-21T15:15:12;29.30;90.00
22185;DHT22;11258;52.516;13.318;2023-08-21T15:17:38;29.30;89.40
22185;DHT22;11258;52.516;13.318;2023-08-21T15:20:04;29.20;89.10
22185;DHT22;11258;52.516;13.318;2023-08-21T15:22:31;29.10;89.30
22185;DHT22;11258;52.516;13.318;2023-08-21T15:24:56;29.20;89.30
22185;DHT22;11258;52.516;13.318;2023-08-21T15:27:22;29.10;89.40
22185;DHT22;11258;52.516;13.318;2023-08-21T15:29:47;29.10;89.40
22185;DHT22;11258;52.516;13.318;2023-08-21T15:32:13;29.00;89.70
22185;DHT22;11258;52.516;13.318;2023-08-21T15:34:39;29.00;90.10